Livermore, CA (94551)

1:12 AM PDT on August 30, 2014 (GMT -0700)
Springtown | Change Station
CLOSE
Current Station
Personal Weather Station
Location: Livermore, CA
Elevation: 509 ft
Nearby Weather Stations

Elev 509 ft 37.72 °N, 121.74 °W | Updated 8 minutes ago

Partly Cloudy
Partly Cloudy
62.6 °F
Feels Like 62.6 °F
N
0.0
Wind Variable Wind from SSE

Today
High -- | Low -- °F
--% Chance of Precip.
Yesterday
High -- | Low -- °F
Precip. -- in
6:35 AM 7:38 PM
Waxing Crescent, 20% visible
Pressure 29.89 in
Visibility 10.0 miles
Clouds Clear
Dew Point 53 °F
Humidity 71%
Rainfall 0.00 in
Snow Depth Not available.
UV 0 out of 12
Pollen 7.40 out of 12
Ozone Good
PM2.5 Good
Flu Activity Not available.
METAR KLVK 300753Z AUTO 32004KT 10SM CLR 18/12 A2990 RMK AO2 SLP120 T01830122 403110156 TSNO

More Conditions Fewer Conditions

Pressure 29.89 in
Visibility 10.0 miles
Clouds Clear
Dew Point 53 °F
Humidity 71%
Rainfall 0.00 in
Snow Depth Not available.
UV 0 out of 12
Pollen 7.40 out of 12
Ozone Good
PM2.5 Good
Flu Activity Not available.
METAR KLVK 300753Z AUTO 32004KT 10SM CLR 18/12 A2990 RMK AO2 SLP120 T01830122 403110156 TSNO

More Conditions Fewer Conditions

10-Day Weather Forecast

Almanac

Astronomy

Aug. 30, 2014 Rise Set
Actual Time 6:35 AM PDT 7:38 PM PDT
Civil Twilight 6:08 AM PDT 8:05 PM PDT
Nautical Twilight 5:36 AM PDT 8:37 PM PDT
Astronomical Twilight 5:03 AM PDT 9:10 PM PDT
Moon 11:22 AM PDT 10:22 PM PDT
Length of Visible Light 13h 57m
Length of Day
13h 03m
Tomorrow will be 2m 18s shorter.
Waxing Crescent, 20% of the Moon is Illuminated
Today
Waxing Crescent
Sep 2
First Quarter
Sep 8
Full
Sep 15
Last Quarter
Sep 24
New

Today's Extremes

State Highs State Lows

Community

WunderPhotos

Upload Photos

1,748,468 photos uploaded!

Nearby

Air Quality

  Air Quality AQ Index Pollutant
Yesterday Good
OZONE
Yesterday Good
PM2.5
Current Good
PM2.5
Current Good
OZONE
Friday Good
OZONE
Saturday Good
OZONE
Sunday Good
OZONE
Monday Good
OZONE
Tuesday Good
OZONE
Wednesday Good
OZONE

Snow Depth

Station Depth Elevation
Blue Lakes 0 in 8000 ft
Forestdale Creek 0 in 8029 ft
Echo Peak 1 in 7800 ft
Leavitt Lake 0 in 9400 ft
Rubicon #2 0 in 7500 ft

Earthquake Activity

City Distance Mag. Time & Date
Ridgemark, California 74 miles 3.4 4:32 PM PDT
2014-08-29
The Geysers, California 96 miles 2.7 2:53 PM PDT
2014-08-29
Ridgemark, California 74 miles 3.0 2:44 PM PDT
2014-08-29
Napa, California 49 miles 2.6 11:57 AM PDT
2014-08-27
Minimum magnitude displayed is 2.5.

Coastal Water Temperatures

Place Temperature
San Francisco, CA 66.0 °F
Richmond, CA 66.9 °F
Port Chicago, CA 69.1 °F

Nearby Weather Stations